createdAt,value
2018-11-10T00:01:35.253Z,35.73
2018-11-10T00:04:04.174Z,33.90
2018-11-10T00:06:33.111Z,35.38
2018-11-10T00:09:02.027Z,36.70
2018-11-10T00:11:30.985Z,37.30
2018-11-10T00:13:59.907Z,38.38
2018-11-10T00:16:28.905Z,35.70
2018-11-10T00:18:57.732Z,37.65
2018-11-10T00:21:26.680Z,36.53
2018-11-10T00:23:55.589Z,38.15
2018-11-10T00:26:24.519Z,37.03
2018-11-10T00:28:53.404Z,36.45
2018-11-10T00:31:22.353Z,37.80
2018-11-10T00:33:51.254Z,36.73
2018-11-10T00:36:20.157Z,36.33
2018-11-10T00:38:48.998Z,38.25
2018-11-10T00:41:17.913Z,38.60
2018-11-10T00:43:46.951Z,36.88
2018-11-10T00:46:15.847Z,37.15
2018-11-10T00:48:44.765Z,36.20
2018-11-10T00:51:13.715Z,38.15
2018-11-10T00:53:42.664Z,36.60
2018-11-10T00:56:11.551Z,36.17
2018-11-10T00:58:40.462Z,35.63
2018-11-10T01:01:09.363Z,36.30
2018-11-10T01:03:38.379Z,37.83
2018-11-10T01:06:07.290Z,33.95
2018-11-10T01:08:36.189Z,35.23
2018-11-10T01:11:05.293Z,38.83
2018-11-10T01:13:34.194Z,38.25
2018-11-10T01:16:03.101Z,34.55
2018-11-10T01:18:31.979Z,38.17
2018-11-10T01:21:00.899Z,35.98
2018-11-10T01:23:29.761Z,36.83
2018-11-10T01:25:58.871Z,37.78
2018-11-10T01:28:27.796Z,36.83
2018-11-10T01:30:56.689Z,36.13
2018-11-10T01:33:25.627Z,38.33
2018-11-10T01:35:54.450Z,37.65
2018-11-10T01:38:23.407Z,37.03
2018-11-10T01:40:52.276Z,32.78
2018-11-10T01:43:21.330Z,36.77
2018-11-10T01:45:50.192Z,31.00
2018-11-10T01:48:19.157Z,34.25
2018-11-10T01:50:48.083Z,34.92
2018-11-10T01:53:16.915Z,33.95
2018-11-10T01:55:45.884Z,31.00
2018-11-10T01:58:14.791Z,33.98
2018-11-10T02:00:43.702Z,34.30
2018-11-10T02:03:12.709Z,34.38
2018-11-10T02:05:41.622Z,35.90
2018-11-10T02:08:10.523Z,36.73
2018-11-10T02:10:39.450Z,32.55
2018-11-10T02:13:08.423Z,34.65
2018-11-10T02:15:37.361Z,32.83
2018-11-10T02:18:06.418Z,34.00
2018-11-10T02:20:35.472Z,34.75
2018-11-10T02:23:04.427Z,35.92
2018-11-10T02:25:34.178Z,33.50
2018-11-10T02:28:03.148Z,33.60
2018-11-10T02:30:32.069Z,34.05
2018-11-10T02:33:00.950Z,33.35
2018-11-10T02:35:29.845Z,33.23
2018-11-10T02:37:58.741Z,34.67
2018-11-10T02:40:27.713Z,34.18
2018-11-10T02:42:56.672Z,31.93
2018-11-10T02:45:25.550Z,34.38
2018-11-10T02:47:54.446Z,33.78
2018-11-10T02:50:23.340Z,32.93
2018-11-10T02:52:52.264Z,34.18
2018-11-10T02:55:21.144Z,34.35
2018-11-10T02:57:50.103Z,33.92
2018-11-10T03:00:19.070Z,34.88
2018-11-10T03:02:47.946Z,34.35
2018-11-10T03:05:16.864Z,33.00
2018-11-10T03:07:45.798Z,35.45
2018-11-10T03:10:14.729Z,36.28
2018-11-10T03:12:43.664Z,35.63
2018-11-10T03:15:13.196Z,35.05
2018-11-10T03:17:42.214Z,33.88
2018-11-10T03:20:15.357Z,31.42
2018-11-10T03:22:44.768Z,36.88
2018-11-10T03:25:13.724Z,34.03
2018-11-10T03:27:42.619Z,34.50
2018-11-10T03:30:11.631Z,34.98
2018-11-10T03:32:40.589Z,33.60
2018-11-10T03:35:10.248Z,32.13
2018-11-10T03:37:39.602Z,34.18
2018-11-10T03:40:09.542Z,33.98
2018-11-10T03:42:38.970Z,35.52
2018-11-10T03:45:09.007Z,35.55
2018-11-10T03:47:37.950Z,41.77
2018-11-10T03:50:07.391Z,39.95
2018-11-10T03:52:36.471Z,33.05
2018-11-10T03:55:06.489Z,34.40
2018-11-10T03:57:35.467Z,35.60
2018-11-10T04:00:04.423Z,33.50
2018-11-10T04:02:33.333Z,34.15
2018-11-10T04:05:02.222Z,33.20
2018-11-10T04:07:31.173Z,33.85
2018-11-10T04:10:00.064Z,37.13
2018-11-10T04:12:29.016Z,35.28
2018-11-10T04:14:57.888Z,35.90
2018-11-10T04:17:26.710Z,37.50
2018-11-10T04:19:55.636Z,35.15
2018-11-10T04:22:28.791Z,34.43
2018-11-10T04:24:57.685Z,37.48
2018-11-10T04:27:26.572Z,36.80
2018-11-10T04:29:55.426Z,38.67
2018-11-10T04:32:24.297Z,37.60
2018-11-10T04:34:53.193Z,37.75
2018-11-10T04:37:22.081Z,37.95
2018-11-10T04:39:51.048Z,37.35
2018-11-10T04:42:19.898Z,36.23
2018-11-10T04:44:48.812Z,37.30
2018-11-10T04:47:17.786Z,36.30
2018-11-10T04:49:46.690Z,38.15
2018-11-10T04:52:15.574Z,37.55
2018-11-10T04:54:44.501Z,37.00
2018-11-10T04:57:13.587Z,39.23
2018-11-10T04:59:42.482Z,37.67
2018-11-10T05:02:11.335Z,37.53
2018-11-10T05:04:40.269Z,37.17
2018-11-10T05:07:09.280Z,37.50
2018-11-10T05:09:38.172Z,38.23
2018-11-10T05:12:07.105Z,40.38
2018-11-10T05:14:36.007Z,38.78
2018-11-10T05:17:05.229Z,38.17
2018-11-10T05:19:34.315Z,39.33
2018-11-10T05:22:03.269Z,40.80
2018-11-10T05:24:32.142Z,38.50
2018-11-10T05:27:01.040Z,38.58
2018-11-10T05:29:29.958Z,38.70
2018-11-10T05:31:58.902Z,39.03
2018-11-10T05:34:27.906Z,39.95
2018-11-10T05:36:56.910Z,38.10
2018-11-10T05:39:25.738Z,37.88
2018-11-10T05:41:54.664Z,40.00
2018-11-10T05:44:23.598Z,42.55
2018-11-10T05:46:58.871Z,37.75
2018-11-10T05:49:27.790Z,39.65
2018-11-10T05:51:56.650Z,39.23
2018-11-10T05:54:25.707Z,37.50
2018-11-10T05:56:54.649Z,40.70
2018-11-10T05:59:23.596Z,41.37
2018-11-10T06:01:52.468Z,42.95
2018-11-10T06:04:21.330Z,40.35
2018-11-10T06:06:50.256Z,40.90
2018-11-10T06:09:19.256Z,42.85
2018-11-10T06:11:48.080Z,43.60
2018-11-10T06:14:16.901Z,39.48
2018-11-10T06:16:45.790Z,42.58
2018-11-10T06:19:14.645Z,43.58
2018-11-10T06:21:43.611Z,42.10
2018-11-10T06:24:12.542Z,41.88
2018-11-10T06:26:41.528Z,42.67
2018-11-10T06:29:10.408Z,42.62
2018-11-10T06:31:39.340Z,42.55
2018-11-10T06:34:08.225Z,45.00
2018-11-10T06:36:37.090Z,43.17
2018-11-10T06:39:08.638Z,45.23
2018-11-10T06:41:37.924Z,44.40
2018-11-10T06:44:06.785Z,47.95
2018-11-10T06:46:35.704Z,47.30
2018-11-10T06:49:04.633Z,59.38
2018-11-10T06:51:33.543Z,59.75
2018-11-10T06:54:02.522Z,57.38
2018-11-10T06:56:32.429Z,55.80
2018-11-10T06:59:01.388Z,57.33
2018-11-10T07:01:30.506Z,69.27
2018-11-10T07:03:59.389Z,73.60
2018-11-10T07:06:28.290Z,74.55
2018-11-10T07:08:57.170Z,68.83
2018-11-10T07:11:26.079Z,57.40
2018-11-10T07:13:56.224Z,69.62
2018-11-10T07:16:25.151Z,71.50
2018-11-10T07:18:54.224Z,62.93
2018-11-10T07:21:23.688Z,68.22
2018-11-10T07:23:52.626Z,67.22
2018-11-10T07:26:21.633Z,64.70
2018-11-10T07:28:50.554Z,55.00
2018-11-10T07:31:19.432Z,64.77
2018-11-10T07:33:48.321Z,57.38
2018-11-10T07:36:17.306Z,64.25
2018-11-10T07:38:46.275Z,66.85
2018-11-10T07:41:15.397Z,62.75
2018-11-10T07:43:44.294Z,63.70
2018-11-10T07:46:13.223Z,65.35
2018-11-10T07:48:42.262Z,63.58
2018-11-10T07:51:11.260Z,63.08
2018-11-10T07:53:40.204Z,57.48
2018-11-10T07:56:09.696Z,63.45
2018-11-10T07:58:38.733Z,52.70
2018-11-10T08:01:07.725Z,58.98
2018-11-10T08:03:37.384Z,59.73
2018-11-10T08:06:06.681Z,55.08
2018-11-10T08:08:35.590Z,57.05
2018-11-10T08:11:04.625Z,61.73
2018-11-10T08:13:34.193Z,62.17
2018-11-10T08:16:03.224Z,62.03
2018-11-10T08:18:32.191Z,55.33
2018-11-10T08:21:01.126Z,64.07
2018-11-10T08:23:30.098Z,57.08
2018-11-10T08:25:59.021Z,56.42
2018-11-10T08:28:27.912Z,57.27
2018-11-10T08:30:57.483Z,55.28
2018-11-10T08:33:26.369Z,66.67
2018-11-10T08:35:55.265Z,57.62
2018-11-10T08:38:24.224Z,54.67
2018-11-10T08:40:53.247Z,53.63
2018-11-10T08:43:22.214Z,54.90
2018-11-10T08:45:51.125Z,57.43
2018-11-10T08:48:20.184Z,51.83
2018-11-10T08:50:49.391Z,53.87
2018-11-10T08:53:18.321Z,54.00
2018-11-10T08:55:47.260Z,49.13
2018-11-10T08:58:16.187Z,47.17
2018-11-10T09:00:45.272Z,55.63
2018-11-10T09:03:14.214Z,84.67
2018-11-10T09:05:43.083Z,47.90
2018-11-10T09:08:12.064Z,47.80
2018-11-10T09:10:40.962Z,46.23
2018-11-10T09:13:09.946Z,42.37
2018-11-10T09:15:39.025Z,46.03
2018-11-10T09:18:07.968Z,41.13
2018-11-10T09:20:36.873Z,40.27
2018-11-10T09:23:06.887Z,40.27
2018-11-10T09:25:35.744Z,36.30
2018-11-10T09:28:04.707Z,34.93
2018-11-10T09:30:33.610Z,38.07
2018-11-10T09:33:02.561Z,34.73
2018-11-10T09:35:31.946Z,38.77
2018-11-10T09:38:00.902Z,39.87
2018-11-10T09:40:29.844Z,40.33
2018-11-10T09:42:58.840Z,80.43
2018-11-10T09:45:28.017Z,39.00
2018-11-10T09:47:57.091Z,39.83
2018-11-10T09:50:26.087Z,125.47
2018-11-10T09:52:55.039Z,74.60
2018-11-10T09:55:23.911Z,93.50
2018-11-10T09:57:52.836Z,51.80
2018-11-10T10:00:22.612Z,38.60
2018-11-10T10:02:51.946Z,42.50
2018-11-10T10:05:20.692Z,38.10
2018-11-10T10:07:49.670Z,51.27
2018-11-10T10:10:18.913Z,45.10
2018-11-10T10:12:48.061Z,35.47
2018-11-10T10:15:18.173Z,33.43
2018-11-10T10:17:47.465Z,34.80
2018-11-10T10:20:17.823Z,35.03
2018-11-10T10:22:47.667Z,35.30
2018-11-10T10:25:17.355Z,30.27
2018-11-10T10:27:47.077Z,34.60
2018-11-10T10:30:22.080Z,28.80
2018-11-10T10:32:51.130Z,27.80
2018-11-10T10:35:20.193Z,30.73
2018-11-10T10:37:49.878Z,29.13
2018-11-10T10:40:18.963Z,28.60
2018-11-10T10:42:48.315Z,29.53
2018-11-10T10:45:19.177Z,28.10
2018-11-10T10:47:49.169Z,25.57
2018-11-10T10:50:19.260Z,29.50
2018-11-10T10:52:49.528Z,26.47
2018-11-10T10:55:20.041Z,26.40
2018-11-10T10:57:54.824Z,28.00
2018-11-10T11:00:30.677Z,24.27
2018-11-10T11:03:07.020Z,25.33
2018-11-10T11:05:45.257Z,27.50
2018-11-10T11:08:17.115Z,26.83
2018-11-10T11:10:48.122Z,24.40
2018-11-10T11:13:21.238Z,21.60
2018-11-10T11:15:50.305Z,25.73
2018-11-10T11:18:19.083Z,25.47
2018-11-10T11:20:48.002Z,22.90
2018-11-10T11:23:16.991Z,24.47
2018-11-10T11:25:45.942Z,144.97
2018-11-10T11:28:14.915Z,28.07
2018-11-10T11:30:43.895Z,22.17
2018-11-10T11:33:12.761Z,21.97
2018-11-10T11:35:41.715Z,22.03
2018-11-10T11:38:10.718Z,23.07
2018-11-10T11:40:39.717Z,21.33
2018-11-10T11:43:08.748Z,21.60
2018-11-10T11:45:37.778Z,20.50
2018-11-10T11:48:07.464Z,22.47
2018-11-10T11:50:41.632Z,46.33
2018-11-10T11:53:12.337Z,47.63
2018-11-10T11:55:41.491Z,65.30
2018-11-10T11:58:10.585Z,23.60
2018-11-10T12:00:39.828Z,23.00
2018-11-10T12:03:08.973Z,23.93
2018-11-10T12:05:37.927Z,22.33
2018-11-10T12:08:06.947Z,23.70
2018-11-10T12:10:35.948Z,23.60
2018-11-10T12:13:05.128Z,23.90
2018-11-10T12:15:34.118Z,24.77
2018-11-10T12:18:03.150Z,22.83
2018-11-10T12:20:32.155Z,23.03
2018-11-10T12:23:01.287Z,22.47
2018-11-10T12:25:30.323Z,21.60
2018-11-10T12:27:59.384Z,25.37
2018-11-10T12:30:28.545Z,24.37
2018-11-10T12:32:57.579Z,77.20
2018-11-10T12:35:26.695Z,98.90
2018-11-10T12:37:55.853Z,44.33
2018-11-10T12:40:25.466Z,67.80
2018-11-10T12:42:55.133Z,26.60
2018-11-10T12:45:30.363Z,23.10
2018-11-10T12:47:59.337Z,23.80
2018-11-10T12:50:28.202Z,22.27
2018-11-10T12:52:57.154Z,22.47
2018-11-10T12:55:26.350Z,20.70
2018-11-10T12:57:55.309Z,23.27
2018-11-10T13:00:24.258Z,24.43
2018-11-10T13:02:55.662Z,21.40
2018-11-10T13:05:24.667Z,21.00
2018-11-10T13:07:54.063Z,24.07
2018-11-10T13:10:23.325Z,21.10
2018-11-10T13:12:52.444Z,21.77
2018-11-10T13:15:21.819Z,20.10
2018-11-10T13:17:50.956Z,57.50
2018-11-10T13:20:20.001Z,38.67
2018-11-10T13:22:49.209Z,21.87
2018-11-10T13:25:18.413Z,20.10
2018-11-10T13:27:47.835Z,19.70
2018-11-10T13:30:17.191Z,20.00
2018-11-10T13:32:46.412Z,20.67
2018-11-10T13:35:15.425Z,20.13
2018-11-10T13:37:44.540Z,20.37
2018-11-10T13:40:13.526Z,20.83
2018-11-10T13:42:42.459Z,25.53
2018-11-10T13:45:13.308Z,23.70
2018-11-10T13:47:42.654Z,20.47
2018-11-10T13:50:12.621Z,18.63
2018-11-10T13:52:42.832Z,19.37
2018-11-10T13:55:12.417Z,19.27
2018-11-10T13:57:41.665Z,16.93
2018-11-10T14:00:14.198Z,18.10
2018-11-10T14:02:43.347Z,18.93
2018-11-10T14:05:13.045Z,18.87
2018-11-10T14:07:42.050Z,20.07
2018-11-10T14:10:12.662Z,19.13
2018-11-10T14:12:42.595Z,16.70
2018-11-10T14:15:11.600Z,17.93
2018-11-10T14:17:41.328Z,17.80
2018-11-10T14:20:12.397Z,17.83
2018-11-10T14:22:41.375Z,18.43
2018-11-10T14:25:12.183Z,18.07
2018-11-10T14:27:41.953Z,18.50
2018-11-10T14:30:13.060Z,19.53
2018-11-10T14:32:42.636Z,17.57
2018-11-10T14:35:12.307Z,17.60
2018-11-10T14:37:41.346Z,18.40
2018-11-10T14:40:13.513Z,18.13
2018-11-10T14:42:42.911Z,17.47
2018-11-10T14:45:13.280Z,17.47
2018-11-10T14:47:42.743Z,17.87
2018-11-10T14:50:12.591Z,29.37
2018-11-10T14:52:41.889Z,31.97
2018-11-10T14:55:11.538Z,21.67
2018-11-10T14:57:40.582Z,18.23
2018-11-10T15:00:14.748Z,19.07
2018-11-10T15:02:43.730Z,18.97
2018-11-10T15:05:13.326Z,19.77
2018-11-10T15:07:43.217Z,20.50
2018-11-10T15:10:14.303Z,19.83
2018-11-10T15:12:44.013Z,20.53
2018-11-10T15:15:14.380Z,20.40
2018-11-10T15:17:43.878Z,21.40
2018-11-10T15:20:14.366Z,19.37
2018-11-10T15:22:44.095Z,21.37
2018-11-10T15:25:14.551Z,20.80
2018-11-10T15:27:43.375Z,21.90
2018-11-10T15:30:14.374Z,22.80
2018-11-10T15:32:44.428Z,22.50
2018-11-10T15:35:14.411Z,24.27
2018-11-10T15:37:44.444Z,25.00
2018-11-10T15:40:14.287Z,25.60
2018-11-10T15:42:43.917Z,28.80
2018-11-10T15:45:14.247Z,38.47
2018-11-10T15:47:43.678Z,40.10
2018-11-10T15:50:14.529Z,40.27
2018-11-10T15:52:43.778Z,46.33
2018-11-10T15:55:13.443Z,50.40
2018-11-10T15:57:42.707Z,56.87
2018-11-10T16:00:14.395Z,55.97
2018-11-10T16:02:43.756Z,54.43
2018-11-10T16:05:13.257Z,60.90
2018-11-10T16:07:42.194Z,59.13
2018-11-10T16:10:11.677Z,58.10
2018-11-10T16:12:40.949Z,57.80
2018-11-10T16:15:13.154Z,57.47
2018-11-10T16:17:42.832Z,53.80
2018-11-10T16:20:15.818Z,54.33
2018-11-10T16:22:46.815Z,53.07
2018-11-10T16:25:16.129Z,51.33
2018-11-10T16:27:45.368Z,54.50
2018-11-10T16:30:17.504Z,54.73
2018-11-10T16:32:46.616Z,56.00
2018-11-10T16:35:15.512Z,55.13
2018-11-10T16:37:44.604Z,53.03
2018-11-10T16:40:15.737Z,53.23
2018-11-10T16:42:46.564Z,53.73
2018-11-10T16:45:16.244Z,50.83
2018-11-10T16:47:45.385Z,52.80
2018-11-10T16:50:14.521Z,51.93
2018-11-10T16:52:44.301Z,52.60
2018-11-10T16:55:13.410Z,54.67
2018-11-10T16:57:42.341Z,53.60
2018-11-10T17:00:13.301Z,53.07
2018-11-10T17:02:43.376Z,55.20
2018-11-10T17:05:12.415Z,53.13
2018-11-10T17:07:41.634Z,58.67
2018-11-10T17:10:13.035Z,51.93
2018-11-10T17:12:42.365Z,53.23
2018-11-10T17:15:11.730Z,45.43
2018-11-10T17:17:40.857Z,37.93
2018-11-10T17:20:13.343Z,37.03
2018-11-10T17:22:42.765Z,34.57
2018-11-10T17:25:12.806Z,34.73
2018-11-10T17:27:42.034Z,30.20
2018-11-10T17:30:13.998Z,30.10
2018-11-10T17:32:43.329Z,29.60
2018-11-10T17:35:13.142Z,31.37
2018-11-10T17:37:42.390Z,34.87
2018-11-10T17:40:12.402Z,46.87
2018-11-10T17:42:41.306Z,51.63
2018-11-10T17:45:12.344Z,49.20
2018-11-10T17:47:41.738Z,46.20
2018-11-10T17:50:12.019Z,46.87
2018-11-10T17:52:41.408Z,43.10
2018-11-10T17:55:18.566Z,42.63
2018-11-10T17:57:47.912Z,49.60
2018-11-10T18:00:17.032Z,50.23
2018-11-10T18:02:45.933Z,44.67
2018-11-10T18:05:16.009Z,50.87
2018-11-10T18:07:45.162Z,98.53
2018-11-10T18:10:15.608Z,83.83
2018-11-10T18:12:45.356Z,60.77
2018-11-10T18:15:14.703Z,55.57
2018-11-10T18:17:43.847Z,39.97
2018-11-10T18:20:14.787Z,43.57
2018-11-10T18:22:44.293Z,42.13
2018-11-10T18:25:13.341Z,48.97
2018-11-10T18:27:42.223Z,41.73
2018-11-10T18:30:13.002Z,44.00
2018-11-10T18:32:42.082Z,28.97
2018-11-10T18:35:11.478Z,26.93
2018-11-10T18:37:40.707Z,25.37
2018-11-10T18:40:09.763Z,26.97
2018-11-10T18:42:38.701Z,27.10
2018-11-10T18:45:09.088Z,29.33
2018-11-10T18:47:38.482Z,29.40
2018-11-10T18:50:09.412Z,29.03
2018-11-10T18:52:38.408Z,33.40
2018-11-10T18:55:07.377Z,36.67
2018-11-10T18:57:36.423Z,32.37
2018-11-10T19:00:05.925Z,38.17
2018-11-10T19:02:35.229Z,47.80
2018-11-10T19:05:04.280Z,46.00
2018-11-10T19:07:33.169Z,47.70
2018-11-10T19:10:02.127Z,49.17
2018-11-10T19:12:31.044Z,53.03
2018-11-10T19:15:00.031Z,57.50
2018-11-10T19:17:29.093Z,54.33
2018-11-10T19:19:58.179Z,59.93
2018-11-10T19:22:27.097Z,57.65
2018-11-10T19:24:56.005Z,57.50
2018-11-10T19:27:24.942Z,50.63
2018-11-10T19:29:53.939Z,53.42
2018-11-10T19:32:22.925Z,52.30
2018-11-10T19:34:51.795Z,53.13
2018-11-10T19:37:20.736Z,50.28
2018-11-10T19:39:49.730Z,49.90
2018-11-10T19:42:19.223Z,49.15
2018-11-10T19:44:48.208Z,42.62
2018-11-10T19:47:17.394Z,44.75
2018-11-10T19:49:46.323Z,46.02
2018-11-10T19:52:17.093Z,40.23
2018-11-10T19:54:46.322Z,44.80
2018-11-10T19:57:16.126Z,43.42
2018-11-10T19:59:45.171Z,42.48
2018-11-10T20:02:14.208Z,75.65
2018-11-10T20:04:43.138Z,46.50
2018-11-10T20:07:12.086Z,48.40
2018-11-10T20:09:41.012Z,51.00
2018-11-10T20:12:09.892Z,45.57
2018-11-10T20:14:38.764Z,39.53
2018-11-10T20:17:07.646Z,40.35
2018-11-10T20:19:36.850Z,40.90
2018-11-10T20:22:06.013Z,41.15
2018-11-10T20:24:34.887Z,41.63
2018-11-10T20:27:03.825Z,44.27
2018-11-10T20:29:32.742Z,42.17
2018-11-10T20:32:01.657Z,40.08
2018-11-10T20:34:30.686Z,43.38
2018-11-10T20:36:59.556Z,42.35
2018-11-10T20:39:28.542Z,38.23
2018-11-10T20:41:57.434Z,41.70
2018-11-10T20:44:26.338Z,39.57
2018-11-10T20:46:55.257Z,40.58
2018-11-10T20:49:24.215Z,43.63
2018-11-10T20:51:53.245Z,41.50
2018-11-10T20:54:22.094Z,42.88
2018-11-10T20:56:50.990Z,42.80
2018-11-10T20:59:19.861Z,40.60
2018-11-10T21:01:48.891Z,40.10
2018-11-10T21:04:17.923Z,40.23
2018-11-10T21:06:46.960Z,40.78
2018-11-10T21:09:15.888Z,42.73
2018-11-10T21:11:44.768Z,44.27
2018-11-10T21:14:13.698Z,43.00
2018-11-10T21:16:42.625Z,38.78
2018-11-10T21:19:11.693Z,41.23
2018-11-10T21:21:41.167Z,41.50
2018-11-10T21:24:10.359Z,40.80
2018-11-10T21:26:39.237Z,39.92
2018-11-10T21:29:08.304Z,42.33
2018-11-10T21:31:37.159Z,41.25
2018-11-10T21:34:06.346Z,40.43
2018-11-10T21:36:35.274Z,39.35
2018-11-10T21:39:04.956Z,41.25
2018-11-10T21:41:33.894Z,42.30
2018-11-10T21:44:02.758Z,40.95
2018-11-10T21:46:31.736Z,42.00
2018-11-10T21:49:00.657Z,42.20
2018-11-10T21:51:29.669Z,42.10
2018-11-10T21:53:58.936Z,41.33
2018-11-10T21:56:27.870Z,40.25
2018-11-10T21:58:56.761Z,37.70
2018-11-10T22:01:25.770Z,42.35
2018-11-10T22:03:54.682Z,39.27
2018-11-10T22:06:23.689Z,40.67
2018-11-10T22:08:52.666Z,40.10
2018-11-10T22:11:21.530Z,38.28
2018-11-10T22:13:51.080Z,37.80
2018-11-10T22:16:20.061Z,39.18
2018-11-10T22:18:48.942Z,38.58
2018-11-10T22:21:17.951Z,38.30
2018-11-10T22:23:46.845Z,44.98
2018-11-10T22:26:15.881Z,40.63
2018-11-10T22:28:44.770Z,43.98
2018-11-10T22:31:13.729Z,43.68
2018-11-10T22:33:42.642Z,42.75
2018-11-10T22:36:11.806Z,39.70
2018-11-10T22:38:40.673Z,40.10
2018-11-10T22:41:09.592Z,41.88
2018-11-10T22:43:38.401Z,40.60
2018-11-10T22:46:07.305Z,39.48
2018-11-10T22:48:36.188Z,39.88
2018-11-10T22:51:05.401Z,38.50
2018-11-10T22:53:34.325Z,39.55
2018-11-10T22:56:03.205Z,39.30
2018-11-10T22:58:32.099Z,37.00
2018-11-10T23:01:07.029Z,37.48
2018-11-10T23:03:36.934Z,38.90
2018-11-10T23:06:06.037Z,37.95
2018-11-10T23:08:35.019Z,38.40
2018-11-10T23:11:03.965Z,39.90
2018-11-10T23:13:32.894Z,39.48
2018-11-10T23:16:01.822Z,38.35
2018-11-10T23:18:30.742Z,36.40
2018-11-10T23:20:59.785Z,43.68
2018-11-10T23:23:28.733Z,40.25
2018-11-10T23:25:57.576Z,38.45
2018-11-10T23:28:26.451Z,40.92
2018-11-10T23:30:55.368Z,38.88
2018-11-10T23:33:24.257Z,38.05
2018-11-10T23:35:53.129Z,37.88
2018-11-10T23:38:22.048Z,38.92
2018-11-10T23:40:57.494Z,38.35
2018-11-10T23:43:26.515Z,38.78
2018-11-10T23:45:55.354Z,37.85
2018-11-10T23:48:24.235Z,37.85
2018-11-10T23:50:53.134Z,38.88
2018-11-10T23:53:22.034Z,36.93
2018-11-10T23:55:50.957Z,38.48
2018-11-10T23:58:19.837Z,40.10
